Time,TemperatureF,DewpointF,PressureIn,WindDirection,WindDirectionDegrees,WindSpeedMPH,WindSpeedGustMPH,Humidity,HourlyPrecipIn,Conditions,Clouds,dailyrainin,SoftwareType,DateUTC
2013-02-19 00:32:00,42.0,34.0,29.72,WSW,246,1.0,-999.0,72,-99.99,,,-99.99,,2013-02-19 08:32:00,
2013-02-19 00:42:00,42.0,34.0,29.72,WSW,246,1.0,-999.0,72,-99.99,,,-99.99,,2013-02-19 08:42:00,
2013-02-19 00:52:00,42.0,34.0,29.72,WSW,246,1.0,-999.0,72,-99.99,,,-99.99,,2013-02-19 08:52:00,
2013-02-19 01:01:00,42.0,34.0,29.72,WSW,246,1.0,-999.0,72,-99.99,,,-99.99,,2013-02-19 09:01:00,
2013-02-19 03:32:00,43.0,36.0,29.69,WSW,244,0.0,-999.0,76,-99.99,,,-99.99,,2013-02-19 11:32:00,
2013-02-19 03:42:00,43.0,36.0,29.69,WSW,244,0.0,-999.0,76,-99.99,,,-99.99,,2013-02-19 11:42:00,
2013-02-19 03:52:00,43.0,36.0,29.69,WSW,244,0.0,-999.0,76,-99.99,,,-99.99,,2013-02-19 11:52:00,
2013-02-19 04:01:00,43.0,36.0,29.69,WSW,244,0.0,-999.0,76,-99.99,,,-99.99,,2013-02-19 12:01:00,
2013-02-19 06:33:00,43.0,38.0,29.66,East,99,0.0,-999.0,83,-99.99,,,-99.99,,2013-02-19 14:33:00,
2013-02-19 06:42:00,43.0,38.0,29.66,East,99,0.0,-999.0,83,-99.99,,,-99.99,,2013-02-19 14:42:00,
2013-02-19 06:52:00,43.0,38.0,29.66,East,99,0.0,-999.0,83,-99.99,,,-99.99,,2013-02-19 14:52:00,
2013-02-19 07:01:00,43.0,38.0,29.66,East,99,0.0,-999.0,83,-99.99,,,-99.99,,2013-02-19 15:01:00,
2013-02-19 09:32:00,43.0,40.0,29.61,ESE,120,1.0,-999.0,90,-99.99,,,-99.99,,2013-02-19 17:32:00,
2013-02-19 09:42:00,43.0,40.0,29.61,ESE,120,1.0,-999.0,90,-99.99,,,-99.99,,2013-02-19 17:42:00,
2013-02-19 09:52:00,43.0,40.0,29.61,ESE,120,1.0,-999.0,90,-99.99,,,-99.99,,2013-02-19 17:52:00,
2013-02-19 10:01:00,43.0,40.0,29.61,ESE,120,1.0,-999.0,90,-99.99,,,-99.99,,2013-02-19 18:01:00,
2013-02-19 12:32:00,41.0,38.0,29.56,West,274,1.0,-999.0,89,-99.99,,,-99.99,,2013-02-19 20:32:00,
2013-02-19 12:42:00,41.0,38.0,29.56,West,274,1.0,-999.0,89,-99.99,,,-99.99,,2013-02-19 20:42:00,
2013-02-19 12:52:00,41.0,38.0,29.56,West,274,1.0,-999.0,89,-99.99,,,-99.99,,2013-02-19 20:52:00,
2013-02-19 13:01:00,41.0,38.0,29.56,West,274,1.0,-999.0,89,-99.99,,,-99.99,,2013-02-19 21:01:00,
2013-02-19 15:32:00,46.0,38.0,29.52,West,279,5.0,-999.0,73,-99.99,,,-99.99,,2013-02-19 23:32:00,
2013-02-19 15:42:00,46.0,38.0,29.52,West,279,5.0,-999.0,73,-99.99,,,-99.99,,2013-02-19 23:42:00,
2013-02-19 15:52:00,46.0,38.0,29.52,West,279,5.0,-999.0,73,-99.99,,,-99.99,,2013-02-19 23:52:00,
2013-02-19 16:01:00,46.0,38.0,29.52,West,279,5.0,-999.0,73,-99.99,,,-99.99,,2013-02-20 00:01:00,
2013-02-19 18:32:00,41.0,33.0,29.51,NE,34,1.0,-999.0,73,-99.99,,,-99.99,,2013-02-20 02:32:00,
2013-02-19 18:42:00,41.0,33.0,29.51,NE,34,1.0,-999.0,73,-99.99,,,-99.99,,2013-02-20 02:42:00,
2013-02-19 18:52:00,41.0,33.0,29.51,NE,34,1.0,-999.0,73,-99.99,,,-99.99,,2013-02-20 02:52:00,
2013-02-19 19:01:00,41.0,33.0,29.51,NE,34,1.0,-999.0,73,-99.99,,,-99.99,,2013-02-20 03:01:00,
2013-02-19 21:32:00,37.0,32.0,29.54,SSE,161,2.0,-999.0,82,-99.99,,,-99.99,,2013-02-20 05:32:00,
2013-02-19 21:43:00,37.0,32.0,29.54,SSE,161,2.0,-999.0,82,-99.99,,,-99.99,,2013-02-20 05:43:00,
2013-02-19 21:52:00,37.0,32.0,29.54,SSE,161,2.0,-999.0,82,-99.99,,,-99.99,,2013-02-20 05:52:00,
2013-02-19 22:01:00,37.0,32.0,29.54,SSE,161,2.0,-999.0,82,-99.99,,,-99.99,,2013-02-20 06:01:00,